createdAt,value
2022-12-09T00:01:27.818Z,10.35
2022-12-09T00:03:56.492Z,11.20
2022-12-09T00:06:26.161Z,10.60
2022-12-09T00:08:54.994Z,10.60
2022-12-09T00:11:24.276Z,10.32
2022-12-09T00:13:54.773Z,10.43
2022-12-09T00:16:24.072Z,10.40
2022-12-09T00:18:53.635Z,10.68
2022-12-09T00:21:23.205Z,10.15
2022-12-09T00:23:52.586Z,10.63
2022-12-09T00:26:21.755Z,11.38
2022-12-09T00:28:50.449Z,10.13
2022-12-09T00:31:21.597Z,9.77
2022-12-09T00:33:50.029Z,10.70
2022-12-09T00:36:19.614Z,10.50
2022-12-09T00:38:48.403Z,11.00
2022-12-09T00:41:17.558Z,11.13
2022-12-09T00:43:48.897Z,10.60
2022-12-09T00:46:17.736Z,10.35
2022-12-09T00:48:48.718Z,10.95
2022-12-09T00:51:18.128Z,11.25
2022-12-09T00:53:47.352Z,10.10
2022-12-09T00:56:16.430Z,11.52
2022-12-09T00:58:44.736Z,11.73
2022-12-09T01:01:13.424Z,10.25
2022-12-09T01:03:42.014Z,10.90
2022-12-09T01:06:13.789Z,10.48
2022-12-09T01:08:43.031Z,10.15
2022-12-09T01:11:12.273Z,10.35
2022-12-09T01:13:41.036Z,9.95
2022-12-09T01:16:15.084Z,10.88
2022-12-09T01:18:43.958Z,10.18
2022-12-09T01:21:13.959Z,10.90
2022-12-09T01:23:42.557Z,10.45
2022-12-09T01:26:11.606Z,11.20
2022-12-09T01:28:41.035Z,10.88
2022-12-09T01:31:10.380Z,10.65
2022-12-09T01:33:39.224Z,10.27
2022-12-09T01:36:08.497Z,10.48
2022-12-09T01:38:38.552Z,11.23
2022-12-09T01:41:07.699Z,11.65
2022-12-09T01:43:36.278Z,9.40
2022-12-09T01:46:04.943Z,11.05
2022-12-09T01:48:35.807Z,10.38
2022-12-09T01:51:06.519Z,10.98
2022-12-09T01:53:36.231Z,10.55
2022-12-09T01:56:08.271Z,10.48
2022-12-09T01:58:36.833Z,10.00
2022-12-09T02:01:05.432Z,10.43
2022-12-09T02:03:34.896Z,10.73
2022-12-09T02:06:03.793Z,10.38
2022-12-09T02:08:33.325Z,11.40
2022-12-09T02:11:09.903Z,10.05
2022-12-09T02:13:49.096Z,9.80
2022-12-09T02:16:20.267Z,10.75
2022-12-09T02:18:51.739Z,10.35
2022-12-09T02:21:23.409Z,10.88
2022-12-09T02:23:57.756Z,10.95
2022-12-09T02:26:29.247Z,10.88
2022-12-09T02:29:10.941Z,11.05
2022-12-09T02:31:50.282Z,10.95
2022-12-09T02:34:21.051Z,11.10
2022-12-09T02:37:01.156Z,11.63
2022-12-09T02:39:32.596Z,11.07
2022-12-09T02:42:02.696Z,10.73
2022-12-09T02:44:31.363Z,11.18
2022-12-09T02:47:00.689Z,10.70
2022-12-09T02:49:32.055Z,10.80
2022-12-09T02:52:02.358Z,10.20
2022-12-09T02:54:33.315Z,10.52
2022-12-09T02:57:03.886Z,12.05
2022-12-09T02:59:32.762Z,9.73
2022-12-09T03:02:08.492Z,10.98
2022-12-09T03:04:40.543Z,10.73
2022-12-09T03:07:11.758Z,10.73
2022-12-09T03:09:46.453Z,11.38
2022-12-09T03:12:19.586Z,11.70
2022-12-09T03:14:50.783Z,10.65
2022-12-09T03:17:21.828Z,10.85
2022-12-09T03:19:53.350Z,12.07
2022-12-09T03:22:23.581Z,11.45
2022-12-09T03:24:54.372Z,11.32
2022-12-09T03:27:27.128Z,11.40
2022-12-09T03:29:56.660Z,11.65
2022-12-09T03:32:26.863Z,11.90
2022-12-09T03:34:59.906Z,11.05
2022-12-09T03:37:28.555Z,12.65
2022-12-09T03:39:57.269Z,11.93
2022-12-09T03:42:29.834Z,12.18
2022-12-09T03:45:00.427Z,11.65
2022-12-09T03:47:33.388Z,11.25
2022-12-09T03:50:03.522Z,12.40
2022-12-09T03:52:34.864Z,11.45
2022-12-09T03:55:06.679Z,11.38
2022-12-09T03:57:38.109Z,11.70
2022-12-09T04:00:07.571Z,11.40
2022-12-09T04:02:41.066Z,12.13
2022-12-09T04:05:11.809Z,11.98
2022-12-09T04:07:40.318Z,11.20
2022-12-09T04:10:09.548Z,12.13
2022-12-09T04:12:39.770Z,11.93
2022-12-09T04:15:10.283Z,11.38
2022-12-09T04:17:38.833Z,12.20
2022-12-09T04:20:08.194Z,12.25
2022-12-09T04:22:38.187Z,11.40
2022-12-09T04:25:06.916Z,12.27
2022-12-09T04:27:35.236Z,11.88
2022-12-09T04:30:03.757Z,11.60
2022-12-09T04:32:33.655Z,10.90
2022-12-09T04:35:02.985Z,12.32
2022-12-09T04:37:31.537Z,11.02
2022-12-09T04:40:01.390Z,11.68
2022-12-09T04:42:30.394Z,11.13
2022-12-09T04:44:58.709Z,10.13
2022-12-09T04:47:27.179Z,10.88
2022-12-09T04:49:55.666Z,11.40
2022-12-09T04:52:25.751Z,11.32
2022-12-09T04:54:54.107Z,11.23
2022-12-09T04:57:24.117Z,11.70
2022-12-09T04:59:52.518Z,10.52
2022-12-09T05:02:21.234Z,10.68
2022-12-09T05:04:50.020Z,11.60
2022-12-09T05:07:18.872Z,11.18
2022-12-09T05:09:48.080Z,10.80
2022-12-09T05:12:16.888Z,10.93
2022-12-09T05:14:46.972Z,10.93
2022-12-09T05:17:15.777Z,11.07
2022-12-09T05:19:44.286Z,10.45
2022-12-09T05:22:12.882Z,11.05
2022-12-09T05:24:43.840Z,11.27
2022-12-09T05:27:12.614Z,11.55
2022-12-09T05:29:41.816Z,11.55
2022-12-09T05:32:11.802Z,11.30
2022-12-09T05:34:40.361Z,11.23
2022-12-09T05:37:09.551Z,10.52
2022-12-09T05:39:38.073Z,10.45
2022-12-09T05:42:06.592Z,9.93
2022-12-09T05:44:35.025Z,10.90
2022-12-09T05:47:03.811Z,10.25
2022-12-09T05:49:34.748Z,10.70
2022-12-09T05:52:03.841Z,10.25
2022-12-09T05:54:32.338Z,11.40
2022-12-09T05:57:03.649Z,10.50
2022-12-09T05:59:32.302Z,10.85
2022-12-09T06:02:04.967Z,10.98
2022-12-09T06:04:38.542Z,12.07
2022-12-09T06:07:07.232Z,11.07
2022-12-09T06:09:36.302Z,10.98
2022-12-09T06:12:04.865Z,12.07
2022-12-09T06:14:33.713Z,9.88
2022-12-09T06:17:02.418Z,10.20
2022-12-09T06:19:31.255Z,10.20
2022-12-09T06:22:01.464Z,10.95
2022-12-09T06:24:30.288Z,11.38
2022-12-09T06:26:59.034Z,11.95
2022-12-09T06:29:27.615Z,11.98
2022-12-09T06:31:56.260Z,11.10
2022-12-09T06:34:24.874Z,10.65
2022-12-09T06:36:53.788Z,12.00
2022-12-09T06:39:24.012Z,10.88
2022-12-09T06:41:52.778Z,11.05
2022-12-09T06:44:23.800Z,10.90
2022-12-09T06:46:53.011Z,11.77
2022-12-09T06:49:21.639Z,11.95
2022-12-09T06:51:50.580Z,11.48
2022-12-09T06:54:19.297Z,10.85
2022-12-09T06:56:49.174Z,11.90
2022-12-09T06:59:17.679Z,11.02
2022-12-09T07:01:46.736Z,11.50
2022-12-09T07:04:16.076Z,11.15
2022-12-09T07:06:46.128Z,11.05
2022-12-09T07:09:16.924Z,11.60
2022-12-09T07:11:47.179Z,11.13
2022-12-09T07:14:19.140Z,11.18
2022-12-09T07:16:48.282Z,12.00
2022-12-09T07:19:18.967Z,11.27
2022-12-09T07:21:47.916Z,11.85
2022-12-09T07:24:18.457Z,11.27
2022-12-09T07:26:47.701Z,11.88
2022-12-09T07:29:17.788Z,12.02
2022-12-09T07:31:47.684Z,10.93
2022-12-09T07:34:16.728Z,11.95
2022-12-09T07:36:45.435Z,11.95
2022-12-09T07:39:14.719Z,11.60
2022-12-09T07:41:43.531Z,11.50
2022-12-09T07:44:12.778Z,11.73
2022-12-09T07:46:42.998Z,11.10
2022-12-09T07:49:12.755Z,12.05
2022-12-09T07:51:41.481Z,11.52
2022-12-09T07:54:12.379Z,12.68
2022-12-09T07:56:41.467Z,12.30
2022-12-09T07:59:10.488Z,11.85
2022-12-09T08:01:39.251Z,11.45
2022-12-09T08:04:09.356Z,12.93
2022-12-09T08:06:39.070Z,11.90
2022-12-09T08:09:09.322Z,12.43
2022-12-09T08:11:38.542Z,13.38
2022-12-09T08:14:12.195Z,13.93
2022-12-09T08:16:41.899Z,12.60
2022-12-09T08:19:12.495Z,12.30
2022-12-09T08:21:41.885Z,13.57
2022-12-09T08:24:12.174Z,11.07
2022-12-09T08:26:41.214Z,10.98
2022-12-09T08:29:11.107Z,11.07
2022-12-09T08:31:41.913Z,12.07
2022-12-09T08:34:12.346Z,10.65
2022-12-09T08:36:40.927Z,11.35
2022-12-09T08:39:09.507Z,11.88
2022-12-09T08:41:39.915Z,12.07
2022-12-09T08:44:10.425Z,11.90
2022-12-09T08:46:39.946Z,10.70
2022-12-09T08:49:08.644Z,12.00
2022-12-09T08:51:38.957Z,11.13
2022-12-09T08:54:07.862Z,10.82
2022-12-09T08:56:36.706Z,11.75
2022-12-09T08:59:05.416Z,11.23
2022-12-09T09:01:35.622Z,11.57
2022-12-09T09:04:06.177Z,12.88
2022-12-09T09:06:35.166Z,10.93
2022-12-09T09:09:07.148Z,10.02
2022-12-09T09:11:37.482Z,10.00
2022-12-09T09:14:07.705Z,10.95
2022-12-09T09:16:37.194Z,10.07
2022-12-09T09:19:06.174Z,10.75
2022-12-09T09:21:35.836Z,9.55
2022-12-09T09:24:09.522Z,10.40
2022-12-09T09:26:40.750Z,9.52
2022-12-09T09:29:11.149Z,10.13
2022-12-09T09:31:40.304Z,9.63
2022-12-09T09:34:09.385Z,8.73
2022-12-09T09:36:37.896Z,9.00
2022-12-09T09:39:08.434Z,9.23
2022-12-09T09:41:43.530Z,8.32
2022-12-09T09:44:18.552Z,8.50
2022-12-09T09:46:49.995Z,8.32
2022-12-09T09:49:20.588Z,9.10
2022-12-09T09:51:49.252Z,8.48
2022-12-09T09:54:19.396Z,8.75
2022-12-09T09:56:53.248Z,8.73
2022-12-09T09:59:26.318Z,8.82
2022-12-09T10:01:59.415Z,7.60
2022-12-09T10:04:36.563Z,8.82
2022-12-09T10:07:14.163Z,7.53
2022-12-09T10:09:49.494Z,8.38
2022-12-09T10:12:25.960Z,7.80
2022-12-09T10:14:58.303Z,7.78
2022-12-09T10:17:29.233Z,7.60
2022-12-09T10:20:00.393Z,8.05
2022-12-09T10:22:31.418Z,7.47
2022-12-09T10:25:02.521Z,7.20
2022-12-09T10:27:32.864Z,8.20
2022-12-09T10:30:02.550Z,7.70
2022-12-09T10:32:32.819Z,7.30
2022-12-09T10:35:02.465Z,7.75
2022-12-09T10:37:32.931Z,7.80
2022-12-09T10:40:06.904Z,7.60
2022-12-09T10:42:57.513Z,8.38
2022-12-09T10:45:35.671Z,8.20
2022-12-09T10:48:27.911Z,8.35
2022-12-09T10:51:02.409Z,7.60
2022-12-09T10:53:31.939Z,7.25
2022-12-09T10:56:02.763Z,7.82
2022-12-09T10:58:32.518Z,8.23
2022-12-09T11:01:06.189Z,7.72
2022-12-09T11:03:39.094Z,7.55
2022-12-09T11:06:27.343Z,7.28
2022-12-09T11:08:59.171Z,7.25
2022-12-09T11:11:46.231Z,7.43
2022-12-09T11:14:23.106Z,7.78
2022-12-09T11:16:53.765Z,6.60
2022-12-09T11:19:30.825Z,8.43
2022-12-09T11:22:16.076Z,7.68
2022-12-09T11:24:44.985Z,9.15
2022-12-09T11:27:29.608Z,7.90
2022-12-09T11:30:13.197Z,8.52
2022-12-09T11:33:07.921Z,7.97
2022-12-09T11:35:51.933Z,7.53
2022-12-09T11:38:24.530Z,6.93
2022-12-09T11:41:00.663Z,8.07
2022-12-09T11:43:38.197Z,7.90
2022-12-09T11:46:23.476Z,8.38
2022-12-09T11:48:57.152Z,7.85
2022-12-09T11:51:27.647Z,7.78
2022-12-09T11:54:03.304Z,8.80
2022-12-09T11:56:32.499Z,7.82
2022-12-09T11:59:05.005Z,7.85
2022-12-09T12:01:46.727Z,8.50
2022-12-09T12:04:16.869Z,8.55
2022-12-09T12:06:49.263Z,9.40
2022-12-09T12:09:21.065Z,7.63
2022-12-09T12:11:53.962Z,7.85
2022-12-09T12:14:29.314Z,6.85
2022-12-09T12:17:00.602Z,7.18
2022-12-09T12:19:31.893Z,7.95
2022-12-09T12:22:16.194Z,7.93
2022-12-09T12:24:58.841Z,6.70
2022-12-09T12:27:35.213Z,8.52
2022-12-09T12:30:07.042Z,8.38
2022-12-09T12:32:41.648Z,7.95
2022-12-09T12:35:21.434Z,7.20
2022-12-09T12:37:55.408Z,6.82
2022-12-09T12:40:28.824Z,7.55
2022-12-09T12:43:19.904Z,7.63
2022-12-09T12:46:10.984Z,7.43
2022-12-09T12:48:46.334Z,7.57
2022-12-09T12:51:21.848Z,8.13
2022-12-09T12:53:55.697Z,7.93
2022-12-09T12:56:25.763Z,8.75
2022-12-09T12:58:59.914Z,6.97
2022-12-09T13:01:31.763Z,7.78
2022-12-09T13:04:04.160Z,7.57
2022-12-09T13:06:37.110Z,8.15
2022-12-09T13:09:08.210Z,8.60
2022-12-09T13:11:39.427Z,8.13
2022-12-09T13:14:09.124Z,7.47
2022-12-09T13:16:41.454Z,7.57
2022-12-09T13:19:13.689Z,8.05
2022-12-09T13:21:42.302Z,7.53
2022-12-09T13:24:17.944Z,7.15
2022-12-09T13:26:51.211Z,7.60
2022-12-09T13:29:29.914Z,7.68
2022-12-09T13:32:04.287Z,7.97
2022-12-09T13:34:38.218Z,7.20
2022-12-09T13:37:06.595Z,7.97
2022-12-09T13:39:53.412Z,7.50
2022-12-09T13:42:56.317Z,7.25
2022-12-09T13:45:29.356Z,7.88
2022-12-09T13:48:01.690Z,6.88
2022-12-09T13:50:33.020Z,7.35
2022-12-09T13:53:02.390Z,6.90
2022-12-09T13:55:36.750Z,7.90
2022-12-09T13:58:23.907Z,7.65
2022-12-09T14:01:04.497Z,7.22
2022-12-09T14:03:35.808Z,7.20
2022-12-09T14:06:06.927Z,7.72
2022-12-09T14:08:37.447Z,6.57
2022-12-09T14:11:20.708Z,6.85
2022-12-09T14:13:49.064Z,7.07
2022-12-09T14:16:19.726Z,7.57
2022-12-09T14:18:49.419Z,8.40
2022-12-09T14:21:35.678Z,8.07
2022-12-09T14:24:22.871Z,6.40
2022-12-09T14:27:06.096Z,6.57
2022-12-09T14:29:45.608Z,7.70
2022-12-09T14:32:20.568Z,6.78
2022-12-09T14:34:50.957Z,5.97
2022-12-09T14:37:32.123Z,6.38
2022-12-09T14:40:03.479Z,6.55
2022-12-09T14:42:36.799Z,6.00
2022-12-09T14:45:14.206Z,6.68
2022-12-09T14:47:43.625Z,7.00
2022-12-09T14:50:16.286Z,7.00
2022-12-09T14:52:51.897Z,7.18
2022-12-09T14:55:22.926Z,7.10
2022-12-09T14:57:52.200Z,8.27
2022-12-09T15:00:29.269Z,6.95
2022-12-09T15:03:30.813Z,7.38
2022-12-09T15:05:56.506Z,7.72
2022-12-09T15:08:28.818Z,8.10
2022-12-09T15:10:57.256Z,8.10
2022-12-09T15:13:26.236Z,9.55
2022-12-09T15:15:54.961Z,9.93
2022-12-09T15:18:24.394Z,12.57
2022-12-09T15:20:54.403Z,14.40
2022-12-09T15:23:25.319Z,9.98
2022-12-09T15:25:55.084Z,10.40
2022-12-09T15:28:26.636Z,12.05
2022-12-09T15:30:57.810Z,12.65
2022-12-09T15:33:26.594Z,9.65
2022-12-09T15:35:57.237Z,8.93
2022-12-09T15:38:28.475Z,8.45
2022-12-09T15:41:16.106Z,9.05
2022-12-09T15:43:45.687Z,9.07
2022-12-09T15:46:15.116Z,9.45
2022-12-09T15:48:46.405Z,8.60
2022-12-09T15:51:17.526Z,9.80
2022-12-09T15:53:53.697Z,9.18
2022-12-09T15:56:26.669Z,9.77
2022-12-09T15:58:56.887Z,9.25
2022-12-09T16:01:27.488Z,9.75
2022-12-09T16:03:56.967Z,8.95
2022-12-09T16:06:26.947Z,9.35
2022-12-09T16:08:56.603Z,9.57
2022-12-09T16:11:37.572Z,9.75
2022-12-09T16:14:06.548Z,8.68
2022-12-09T16:16:37.506Z,9.55
2022-12-09T16:19:05.904Z,8.77
2022-12-09T16:21:35.587Z,9.73
2022-12-09T16:24:09.269Z,9.20
2022-12-09T16:26:39.740Z,8.80
2022-12-09T16:29:09.604Z,8.98
2022-12-09T16:31:38.266Z,8.60
2022-12-09T16:34:06.692Z,7.65
2022-12-09T16:36:35.021Z,9.25
2022-12-09T16:39:21.232Z,8.63
2022-12-09T16:42:00.608Z,8.55
2022-12-09T16:44:30.746Z,9.40
2022-12-09T16:47:10.414Z,8.45
2022-12-09T16:49:39.244Z,8.70
2022-12-09T16:52:07.606Z,9.07
2022-12-09T16:54:35.964Z,9.15
2022-12-09T16:57:05.614Z,8.18
2022-12-09T16:59:37.772Z,8.13
2022-12-09T17:02:11.290Z,8.90
2022-12-09T17:04:40.703Z,7.78
2022-12-09T17:07:10.263Z,8.90
2022-12-09T17:09:39.916Z,8.75
2022-12-09T17:12:14.212Z,8.50
2022-12-09T17:14:43.578Z,8.98
2022-12-09T17:17:11.961Z,8.77
2022-12-09T17:19:41.932Z,9.02
2022-12-09T17:22:10.324Z,8.93
2022-12-09T17:24:38.908Z,8.48
2022-12-09T17:27:07.255Z,9.73
2022-12-09T17:29:37.359Z,9.48
2022-12-09T17:32:06.258Z,11.30
2022-12-09T17:34:34.625Z,9.35
2022-12-09T17:37:02.931Z,8.50
2022-12-09T17:39:31.291Z,8.68
2022-12-09T17:41:59.679Z,9.32
2022-12-09T17:44:28.022Z,11.25
2022-12-09T17:46:57.704Z,9.55
2022-12-09T17:49:26.045Z,9.75
2022-12-09T17:51:54.360Z,9.60
2022-12-09T17:54:22.747Z,10.38
2022-12-09T17:56:51.078Z,9.73
2022-12-09T17:59:19.406Z,10.65
2022-12-09T18:01:48.210Z,9.25
2022-12-09T18:04:19.821Z,9.20
2022-12-09T18:06:48.805Z,11.00
2022-12-09T18:09:18.014Z,11.60
2022-12-09T18:11:46.809Z,11.68
2022-12-09T18:14:15.541Z,10.52
2022-12-09T18:16:44.249Z,11.50
2022-12-09T18:19:15.141Z,10.93
2022-12-09T18:21:44.847Z,15.77
2022-12-09T18:24:13.177Z,13.18
2022-12-09T18:26:42.401Z,12.52
2022-12-09T18:29:11.167Z,14.35
2022-12-09T18:31:39.538Z,13.43
2022-12-09T18:34:08.045Z,13.00
2022-12-09T18:36:36.364Z,12.77
2022-12-09T18:39:06.181Z,11.85
2022-12-09T18:41:35.012Z,10.48
2022-12-09T18:44:04.011Z,11.23
2022-12-09T18:46:33.399Z,12.68
2022-12-09T18:49:02.630Z,12.35
2022-12-09T18:51:31.250Z,12.95
2022-12-09T18:53:59.851Z,11.23
2022-12-09T18:56:29.712Z,12.85
2022-12-09T18:59:06.549Z,13.38
2022-12-09T19:01:38.904Z,12.10
2022-12-09T19:04:08.550Z,13.60
2022-12-09T19:06:37.726Z,13.60
2022-12-09T19:09:06.823Z,12.98
2022-12-09T19:11:38.279Z,12.50
2022-12-09T19:14:07.184Z,12.48
2022-12-09T19:16:36.291Z,12.90
2022-12-09T19:19:09.678Z,11.80
2022-12-09T19:21:39.028Z,12.07
2022-12-09T19:24:07.877Z,13.90
2022-12-09T19:26:38.073Z,13.40
2022-12-09T19:29:07.201Z,13.73
2022-12-09T19:31:36.865Z,13.05
2022-12-09T19:34:06.511Z,11.93
2022-12-09T19:36:35.500Z,14.48
2022-12-09T19:39:04.742Z,13.48
2022-12-09T19:41:33.134Z,14.60
2022-12-09T19:44:04.018Z,14.75
2022-12-09T19:46:32.457Z,12.85
2022-12-09T19:49:00.807Z,11.52
2022-12-09T19:51:29.569Z,13.85
2022-12-09T19:53:58.840Z,13.95
2022-12-09T19:56:27.551Z,13.88
2022-12-09T19:58:55.929Z,12.55
2022-12-09T20:01:26.723Z,11.60
2022-12-09T20:03:57.646Z,11.77
2022-12-09T20:06:26.304Z,12.30
2022-12-09T20:08:54.602Z,12.02
2022-12-09T20:11:23.895Z,12.52
2022-12-09T20:13:52.717Z,11.30
2022-12-09T20:16:22.269Z,12.95
2022-12-09T20:18:52.427Z,14.75
2022-12-09T20:21:21.167Z,13.13
2022-12-09T20:23:49.877Z,12.57
2022-12-09T20:26:19.641Z,12.43
2022-12-09T20:28:48.807Z,13.07
2022-12-09T20:31:17.873Z,13.02
2022-12-09T20:33:46.233Z,12.32
2022-12-09T20:36:16.722Z,12.20
2022-12-09T20:38:45.907Z,12.02
2022-12-09T20:41:15.077Z,11.90
2022-12-09T20:43:44.186Z,11.15
2022-12-09T20:46:13.387Z,12.85
2022-12-09T20:48:42.473Z,11.85
2022-12-09T20:51:12.005Z,12.32
2022-12-09T20:53:42.202Z,11.73
2022-12-09T20:56:11.020Z,12.65
2022-12-09T20:58:39.845Z,12.80
2022-12-09T21:01:08.702Z,14.00
2022-12-09T21:03:37.095Z,14.55
2022-12-09T21:06:05.703Z,14.10
2022-12-09T21:08:34.237Z,14.98
2022-12-09T21:11:08.175Z,12.50
2022-12-09T21:13:37.318Z,13.95
2022-12-09T21:16:06.660Z,14.13
2022-12-09T21:18:35.723Z,13.10
2022-12-09T21:21:04.094Z,14.57
2022-12-09T21:23:34.202Z,14.23
2022-12-09T21:26:05.136Z,13.95
2022-12-09T21:28:34.850Z,13.05
2022-12-09T21:31:07.699Z,13.95
2022-12-09T21:33:36.345Z,14.68
2022-12-09T21:36:06.592Z,13.73
2022-12-09T21:38:35.073Z,12.73
2022-12-09T21:41:04.659Z,13.73
2022-12-09T21:43:34.655Z,13.05
2022-12-09T21:46:03.329Z,13.48
2022-12-09T21:48:31.818Z,13.07
2022-12-09T21:51:00.744Z,12.05
2022-12-09T21:53:29.552Z,11.95
2022-12-09T21:56:02.953Z,11.73
2022-12-09T21:58:31.986Z,12.70
2022-12-09T22:01:02.869Z,12.20
2022-12-09T22:03:31.284Z,11.25
2022-12-09T22:06:01.196Z,11.48
2022-12-09T22:08:29.642Z,12.57
2022-12-09T22:10:58.602Z,13.45
2022-12-09T22:13:27.027Z,11.68
2022-12-09T22:15:55.385Z,12.00
2022-12-09T22:18:25.130Z,11.63
2022-12-09T22:23:42.120Z,12.00
2022-12-09T22:26:11.643Z,13.68
2022-12-09T22:28:40.040Z,11.75
2022-12-09T22:31:10.540Z,12.45
2022-12-09T22:33:40.504Z,12.57
2022-12-09T22:36:10.237Z,12.18
2022-12-09T22:38:39.285Z,11.88
2022-12-09T22:41:08.322Z,12.60
2022-12-09T22:43:38.290Z,13.25
2022-12-09T22:46:07.319Z,12.40
2022-12-09T22:48:36.250Z,11.55
2022-12-09T22:51:06.788Z,11.48
2022-12-09T22:53:35.454Z,11.98
2022-12-09T22:56:04.194Z,12.43
2022-12-09T22:58:32.563Z,12.48
2022-12-09T23:01:00.870Z,13.48
2022-12-09T23:03:29.329Z,11.85
2022-12-09T23:05:57.698Z,12.45
2022-12-09T23:08:28.355Z,12.63
2022-12-09T23:10:56.666Z,12.45
2022-12-09T23:13:24.977Z,12.93
2022-12-09T23:15:53.418Z,11.77
2022-12-09T23:18:21.744Z,13.30
2022-12-09T23:20:50.038Z,12.23
2022-12-09T23:23:18.348Z,11.50
2022-12-09T23:25:48.014Z,11.43
2022-12-09T23:28:17.634Z,12.10
2022-12-09T23:30:45.966Z,12.35
2022-12-09T23:33:14.308Z,13.70
2022-12-09T23:35:42.611Z,12.45
2022-12-09T23:38:10.936Z,11.70
2022-12-09T23:40:41.278Z,12.48
2022-12-09T23:43:11.563Z,12.77
2022-12-09T23:45:39.955Z,11.43
2022-12-09T23:48:08.346Z,11.05
2022-12-09T23:50:36.694Z,12.93
2022-12-09T23:53:05.067Z,11.70
2022-12-09T23:55:33.524Z,11.77
2022-12-09T23:58:01.850Z,11.48
